createdAt,value
2022-12-01T00:03:20.290Z,0.62
2022-12-01T00:10:02.006Z,0.55
2022-12-01T00:16:53.431Z,0.51
2022-12-01T00:23:36.206Z,0.53
2022-12-01T00:29:42.594Z,0.54
2022-12-01T00:35:46.740Z,0.57
2022-12-01T00:41:57.831Z,0.64
2022-12-01T00:47:59.977Z,0.78
2022-12-01T00:54:22.183Z,0.87
2022-12-01T01:00:44.128Z,0.91
2022-12-01T01:07:07.628Z,1.03
2022-12-01T01:13:25.517Z,1.17
2022-12-01T01:19:27.768Z,1.21
2022-12-01T01:25:33.280Z,1.23
2022-12-01T01:31:39.378Z,1.16
2022-12-01T01:38:01.879Z,1.19
2022-12-01T01:44:30.243Z,1.26
2022-12-01T01:50:32.844Z,1.31
2022-12-01T01:56:55.627Z,1.32
2022-12-01T02:03:37.546Z,1.29
2022-12-01T02:09:59.913Z,1.30
2022-12-01T02:16:26.558Z,1.33
2022-12-01T02:23:26.123Z,1.29
2022-12-01T02:29:58.192Z,1.23
2022-12-01T02:36:10.513Z,1.23
2022-12-01T02:42:03.641Z,1.28
2022-12-01T02:47:28.043Z,1.26
2022-12-01T02:53:49.867Z,1.23
2022-12-01T03:00:00.471Z,1.21
2022-12-01T03:06:24.381Z,1.21
2022-12-01T03:13:04.664Z,1.17
2022-12-01T03:19:31.227Z,1.15
2022-12-01T03:25:54.099Z,1.04
2022-12-01T03:32:02.938Z,0.97
2022-12-01T03:37:56.619Z,1.07
2022-12-01T03:44:21.426Z,1.11
2022-12-01T03:50:58.714Z,1.11
2022-12-01T03:57:44.107Z,1.03
2022-12-01T04:04:26.524Z,1.00
2022-12-01T04:10:29.879Z,1.06
2022-12-01T04:16:56.079Z,1.09
2022-12-01T04:23:36.373Z,1.06
2022-12-01T04:30:18.474Z,0.95
2022-12-01T04:36:44.279Z,0.99
2022-12-01T04:42:20.047Z,0.96
2022-12-01T04:48:05.957Z,0.88
2022-12-01T04:54:09.514Z,0.89
2022-12-01T05:00:20.855Z,0.91
2022-12-01T05:06:39.873Z,0.95
2022-12-01T05:13:03.014Z,1.03
2022-12-01T05:18:38.277Z,1.06
2022-12-01T05:24:42.772Z,1.06
2022-12-01T05:31:25.304Z,1.09
2022-12-01T05:37:50.066Z,1.18
2022-12-01T05:44:17.728Z,1.13
2022-12-01T05:49:43.673Z,1.04
2022-12-01T05:55:07.867Z,1.07
2022-12-01T06:01:30.747Z,1.06
2022-12-01T06:08:13.487Z,1.08
2022-12-01T06:14:58.117Z,1.21
2022-12-01T06:21:14.099Z,1.24
2022-12-01T06:27:58.127Z,1.20
2022-12-01T06:34:52.543Z,1.13
2022-12-01T06:41:35.594Z,1.26
2022-12-01T06:48:21.780Z,1.23
2022-12-01T06:54:51.722Z,1.27
2022-12-01T07:01:14.484Z,1.35
2022-12-01T07:07:59.664Z,1.39
2022-12-01T07:14:45.470Z,1.43
2022-12-01T07:21:28.383Z,1.40
2022-12-01T07:28:11.655Z,1.52
2022-12-01T07:34:59.621Z,1.48
2022-12-01T07:41:42.710Z,1.53
2022-12-01T07:48:06.294Z,1.65
2022-12-01T07:54:31.486Z,1.71
2022-12-01T08:00:08.900Z,1.61
2022-12-01T08:14:24.599Z,1.47
2022-12-01T08:21:18.985Z,1.49
2022-12-01T08:28:06.907Z,1.49
2022-12-01T08:34:57.202Z,1.52
2022-12-01T09:01:52.441Z,1.72
2022-12-01T09:07:19.110Z,1.54
2022-12-01T09:12:54.452Z,1.41
2022-12-01T09:18:17.242Z,1.41
2022-12-01T09:23:40.881Z,1.48
2022-12-01T09:30:23.425Z,1.49
2022-12-01T09:36:45.888Z,1.40
2022-12-01T09:42:35.335Z,1.29
2022-12-01T09:49:03.506Z,1.19
2022-12-01T09:55:13.344Z,1.13
2022-12-01T10:01:20.667Z,1.14
2022-12-01T10:07:12.257Z,1.25
2022-12-01T10:13:36.521Z,1.38
2022-12-01T10:19:42.034Z,1.49
2022-12-01T10:26:24.327Z,1.59
2022-12-01T10:32:33.509Z,1.68
2022-12-01T10:38:37.603Z,1.66
2022-12-01T10:44:28.504Z,1.52
2022-12-01T10:50:29.196Z,1.54
2022-12-01T10:56:31.177Z,1.59
2022-12-01T11:02:25.379Z,1.60
2022-12-01T11:09:07.192Z,1.50
2022-12-01T11:15:33.866Z,1.43
2022-12-01T11:21:36.551Z,1.36
2022-12-01T11:28:12.271Z,1.22
2022-12-01T11:34:18.304Z,1.07
2022-12-01T11:40:03.193Z,1.10
2022-12-01T11:46:50.398Z,1.17
2022-12-01T11:53:16.116Z,1.24
2022-12-01T11:59:22.833Z,1.25
2022-12-01T12:05:35.366Z,1.41
2022-12-01T12:11:53.269Z,1.50
2022-12-01T12:17:57.123Z,1.42
2022-12-01T12:24:01.186Z,1.41
2022-12-01T12:29:52.883Z,1.42
2022-12-01T12:35:36.708Z,1.35
2022-12-01T13:14:29.472Z,1.11
2022-12-01T13:20:35.435Z,1.12
2022-12-01T13:26:20.209Z,1.09
2022-12-01T13:31:52.765Z,1.11
2022-12-01T13:37:55.689Z,1.23
2022-12-01T13:44:07.356Z,1.25
2022-12-01T13:50:36.619Z,1.22
2022-12-01T13:56:22.188Z,1.19
2022-12-01T14:01:46.844Z,1.17
2022-12-01T14:07:32.369Z,1.21
2022-12-01T14:12:59.510Z,1.28
2022-12-01T14:18:27.060Z,1.24
2022-12-01T14:25:05.348Z,1.17
2022-12-01T14:31:51.212Z,1.15
2022-12-01T14:37:53.752Z,1.09
2022-12-01T14:44:25.883Z,1.01
2022-12-01T14:50:32.662Z,0.91
2022-12-01T14:56:37.406Z,0.99
2022-12-01T15:03:00.821Z,1.02
2022-12-01T15:09:17.740Z,0.99
2022-12-01T15:15:23.710Z,0.97
2022-12-01T15:21:33.620Z,1.14
2022-12-01T15:28:21.464Z,1.23
2022-12-01T15:34:31.627Z,1.22
2022-12-01T15:41:21.067Z,1.10
2022-12-01T15:47:20.986Z,1.07
2022-12-01T15:53:49.092Z,0.94
2022-12-01T15:59:14.503Z,0.81
2022-12-01T16:04:37.755Z,0.83
2022-12-01T16:10:44.481Z,0.91
2022-12-01T16:16:45.877Z,0.97
2022-12-01T16:22:51.097Z,0.99
2022-12-01T16:28:36.770Z,0.95
2022-12-01T16:34:14.106Z,0.96
2022-12-01T16:39:47.772Z,0.95
2022-12-01T16:45:53.223Z,0.87
2022-12-01T16:51:29.502Z,0.75
2022-12-01T16:56:52.561Z,0.70
2022-12-01T17:02:14.459Z,0.68
2022-12-01T17:07:37.212Z,0.72
2022-12-01T17:12:59.157Z,0.73
2022-12-01T17:18:22.655Z,0.70
2022-12-01T17:23:45.088Z,0.62
2022-12-01T17:29:07.059Z,0.64
2022-12-01T17:34:29.153Z,0.68
2022-12-01T17:40:14.003Z,0.67
2022-12-01T17:46:39.605Z,0.53
2022-12-01T17:53:25.048Z,0.54
2022-12-01T17:59:07.436Z,1.36
2022-12-01T18:04:31.054Z,1.57
2022-12-01T18:09:55.152Z,1.61
2022-12-01T18:16:18.027Z,1.45
2022-12-01T18:22:00.701Z,1.26
2022-12-01T18:27:22.662Z,1.16
2022-12-01T18:32:45.027Z,1.13
2022-12-01T18:38:08.501Z,1.13
2022-12-01T18:43:35.639Z,1.04
2022-12-01T18:49:02.227Z,0.93
2022-12-01T18:54:25.173Z,0.92
2022-12-01T18:59:47.510Z,0.97
2022-12-01T19:05:09.973Z,0.93
2022-12-01T19:10:32.542Z,0.92
2022-12-01T19:15:54.960Z,0.94
2022-12-01T19:21:20.059Z,0.95
2022-12-01T19:26:43.105Z,1.01
2022-12-01T19:32:05.908Z,1.04
2022-12-01T19:37:28.814Z,0.91
2022-12-01T19:42:51.073Z,0.82
2022-12-01T19:48:13.038Z,0.71
2022-12-01T19:53:34.958Z,0.69
2022-12-01T19:58:57.955Z,0.67
2022-12-01T20:04:19.850Z,0.60
2022-12-01T20:09:45.601Z,0.50
2022-12-01T20:15:13.984Z,0.47
2022-12-01T20:20:35.948Z,0.46
2022-12-01T20:26:07.303Z,0.37
2022-12-01T20:31:30.162Z,0.20
2022-12-01T20:37:11.369Z,0.16
2022-12-01T20:42:33.637Z,0.08
2022-12-01T20:47:56.509Z,0.02
2022-12-01T20:53:19.013Z,0.07
2022-12-01T20:58:41.721Z,0.05
2022-12-01T21:04:04.257Z,0.02
2022-12-01T21:09:27.351Z,-0.01
2022-12-01T21:15:15.534Z,-0.02
2022-12-01T21:20:43.104Z,-0.01
2022-12-01T21:26:10.481Z,0.03
2022-12-01T21:31:32.471Z,0.05
2022-12-01T21:37:02.223Z,0.05
2022-12-01T21:42:31.037Z,0.14
2022-12-01T21:47:53.849Z,0.22
2022-12-01T21:53:20.170Z,0.19
2022-12-01T21:58:44.064Z,0.12
2022-12-01T22:04:13.384Z,0.10
2022-12-01T22:09:36.411Z,0.09
2022-12-01T22:15:08.358Z,0.05
2022-12-01T22:21:30.551Z,0.04
2022-12-01T22:27:40.025Z,0.11
2022-12-01T22:33:05.728Z,0.08
2022-12-01T22:38:57.046Z,0.18
2022-12-01T22:45:24.896Z,0.26
2022-12-01T22:52:18.210Z,0.37
2022-12-01T22:59:01.248Z,0.47
2022-12-01T23:21:34.430Z,0.52
2022-12-01T23:28:17.298Z,0.59
2022-12-01T23:35:00.900Z,0.57
2022-12-01T23:41:47.356Z,0.44
2022-12-01T23:48:31.360Z,0.43
2022-12-01T23:55:17.309Z,0.36
